createdAt,value
2023-04-26T00:03:46.700Z,99767.84
2023-04-26T00:08:49.277Z,99755.53
2023-04-26T00:13:51.805Z,99768.16
2023-04-26T00:18:55.025Z,99771.19
2023-04-26T00:23:57.830Z,99781.28
2023-04-26T00:29:00.013Z,99794.97
2023-04-26T00:34:02.182Z,99799.09
2023-04-26T00:39:04.394Z,99797.72
2023-04-26T00:44:06.784Z,99795.63
2023-04-26T00:49:09.741Z,99814.56
2023-04-26T00:54:13.963Z,99821.47
2023-04-26T00:59:16.309Z,99812.50
2023-04-26T01:04:19.246Z,99825.66
2023-04-26T01:09:22.391Z,99825.16
2023-04-26T01:14:25.284Z,99830.34
2023-04-26T01:19:27.462Z,99831.44
2023-04-26T01:24:30.222Z,99830.88
2023-04-26T01:29:32.472Z,99837.19
2023-04-26T01:34:34.736Z,99837.16
2023-04-26T01:39:37.127Z,99844.28
2023-04-26T01:44:39.643Z,99847.81
2023-04-26T01:49:41.887Z,99835.50
2023-04-26T01:54:44.149Z,99857.16
2023-04-26T01:59:46.433Z,99851.41
2023-04-26T02:04:48.583Z,99867.78
2023-04-26T02:09:50.842Z,99850.84
2023-04-26T02:14:53.057Z,99853.31
2023-04-26T02:19:55.448Z,99872.22
2023-04-26T02:24:57.646Z,99851.97
2023-04-26T02:29:59.904Z,99862.91
2023-04-26T02:35:02.214Z,99874.13
2023-04-26T02:40:05.898Z,99869.72
2023-04-26T02:45:08.611Z,99874.66
2023-04-26T02:50:11.030Z,99867.00
2023-04-26T02:55:13.415Z,99880.38
2023-04-26T03:00:15.738Z,99899.53
2023-04-26T03:05:17.938Z,99904.50
2023-04-26T03:10:20.037Z,99899.03
2023-04-26T03:15:22.317Z,99916.53
2023-04-26T03:20:25.558Z,99908.81
2023-04-26T03:25:27.661Z,99941.16
2023-04-26T03:30:30.035Z,99916.19
2023-04-26T03:35:32.216Z,99935.88
2023-04-26T03:40:34.421Z,99941.28
2023-04-26T03:45:37.290Z,99941.66
2023-04-26T03:50:39.669Z,99961.13
2023-04-26T03:55:42.136Z,99942.69
2023-04-26T04:00:44.555Z,99965.34
2023-04-26T04:05:46.788Z,99970.31
2023-04-26T04:10:49.144Z,99968.91
2023-04-26T04:15:51.827Z,99960.72
2023-04-26T04:20:54.039Z,99965.91
2023-04-26T04:25:56.225Z,99983.97
2023-04-26T04:30:58.497Z,99971.56
2023-04-26T04:36:00.697Z,99966.06
2023-04-26T04:41:02.884Z,99998.81
2023-04-26T04:46:05.195Z,100002.63
2023-04-26T04:51:08.190Z,100018.81
2023-04-26T04:56:10.344Z,100006.69
2023-04-26T05:01:12.545Z,100026.69
2023-04-26T05:06:14.854Z,100040.87
2023-04-26T05:11:17.190Z,100037.00
2023-04-26T05:16:19.532Z,100035.28
2023-04-26T05:21:22.170Z,100050.03
2023-04-26T05:26:24.322Z,100042.72
2023-04-26T05:31:27.607Z,100055.69
2023-04-26T05:36:30.112Z,100066.97
2023-04-26T05:41:32.561Z,100059.31
2023-04-26T05:46:35.248Z,100074.97
2023-04-26T05:51:37.591Z,100083.44
2023-04-26T05:56:39.954Z,100081.31
2023-04-26T06:01:42.351Z,100072.00
2023-04-26T06:06:44.583Z,100067.63
2023-04-26T06:11:46.816Z,100075.34
2023-04-26T06:16:49.095Z,100083.06
2023-04-26T06:21:54.926Z,100079.53
2023-04-26T06:26:57.173Z,100092.75
2023-04-26T06:31:59.436Z,100107.84
2023-04-26T06:37:01.826Z,100079.34
2023-04-26T06:42:07.477Z,100099.97
2023-04-26T06:47:11.262Z,100088.47
2023-04-26T06:52:13.454Z,100103.28
2023-04-26T06:57:15.896Z,100098.06
2023-04-26T07:02:18.577Z,100099.41
2023-04-26T07:07:20.845Z,100099.94
2023-04-26T07:12:23.021Z,100094.87
2023-04-26T07:17:25.177Z,100109.00
2023-04-26T07:22:27.310Z,100114.59
2023-04-26T07:27:30.761Z,100114.41
2023-04-26T07:32:33.032Z,100115.56
2023-04-26T07:37:35.336Z,100105.69
2023-04-26T07:42:37.502Z,100118.63
2023-04-26T07:47:39.717Z,100118.91
2023-04-26T07:52:43.419Z,100139.75
2023-04-26T07:57:46.084Z,100131.25
2023-04-26T08:02:48.645Z,100144.03
2023-04-26T08:07:50.988Z,100136.75
2023-04-26T08:12:53.275Z,100145.34
2023-04-26T08:17:55.649Z,100148.72
2023-04-26T08:22:58.328Z,100149.63
2023-04-26T08:28:00.856Z,100176.19
2023-04-26T08:33:03.533Z,100169.06
2023-04-26T08:38:05.748Z,100156.88
2023-04-26T08:43:11.036Z,100171.59
2023-04-26T08:48:16.213Z,100182.38
2023-04-26T08:53:18.575Z,100167.78
2023-04-26T08:58:21.677Z,100159.66
2023-04-26T09:03:26.429Z,100169.56
2023-04-26T09:08:29.719Z,100179.28
2023-04-26T09:13:31.879Z,100172.91
2023-04-26T09:18:34.284Z,100169.66
2023-04-26T09:23:36.797Z,100179.84
2023-04-26T09:28:38.962Z,100186.44
2023-04-26T09:33:59.306Z,100177.00
2023-04-26T09:39:01.604Z,100173.25
2023-04-26T09:44:03.895Z,100166.16
2023-04-26T09:49:06.422Z,100174.59
2023-04-26T09:54:08.637Z,100157.78
2023-04-26T09:59:11.674Z,100160.22
2023-04-26T10:04:14.023Z,100166.34
2023-04-26T10:09:16.222Z,100158.72
2023-04-26T10:14:18.472Z,100161.34
2023-04-26T10:19:22.338Z,100147.72
2023-04-26T10:24:24.602Z,100162.22
2023-04-26T10:29:47.444Z,100170.34
2023-04-26T10:35:16.532Z,100161.47
2023-04-26T10:40:25.639Z,100169.78
2023-04-26T10:45:29.933Z,100161.69
2023-04-26T10:50:32.170Z,100156.63
2023-04-26T10:55:43.677Z,100167.25
2023-04-26T11:01:08.426Z,100174.41
2023-04-26T11:06:13.957Z,100159.03
2023-04-26T11:11:19.414Z,100180.84
2023-04-26T11:16:21.679Z,100163.25
2023-04-26T11:21:23.866Z,100151.91
2023-04-26T11:26:33.104Z,100147.28
2023-04-26T11:31:36.561Z,100170.66
2023-04-26T11:36:38.744Z,100161.84
2023-04-26T11:41:41.176Z,100175.72
2023-04-26T11:46:43.573Z,100175.91
2023-04-26T11:51:49.693Z,100169.00
2023-04-26T11:56:51.908Z,100176.84
2023-04-26T12:01:55.208Z,100181.41
2023-04-26T12:06:58.511Z,100179.09
2023-04-26T12:12:04.211Z,100159.03
2023-04-26T12:17:07.980Z,100172.75
2023-04-26T12:22:10.389Z,100167.03
2023-04-26T12:27:21.978Z,100182.22
2023-04-26T12:32:24.123Z,100179.78
2023-04-26T12:37:26.236Z,100196.09
2023-04-26T12:42:28.427Z,100181.06
2023-04-26T12:47:31.988Z,100188.47
2023-04-26T12:52:34.413Z,100172.53
2023-04-26T12:57:38.177Z,100188.81
2023-04-26T13:02:41.152Z,100193.28
2023-04-26T13:07:44.524Z,100183.47
2023-04-26T13:12:46.689Z,100192.94
2023-04-26T13:17:49.135Z,100211.59
2023-04-26T13:22:51.473Z,100205.34
2023-04-26T13:27:54.847Z,100192.13
2023-04-26T13:33:00.096Z,100191.38
2023-04-26T13:38:03.054Z,100201.97
2023-04-26T13:43:06.239Z,100195.16
2023-04-26T13:48:08.515Z,100213.97
2023-04-26T13:53:11.358Z,100221.81
2023-04-26T13:58:13.765Z,100231.41
2023-04-26T14:03:16.334Z,100235.00
2023-04-26T14:08:18.745Z,100239.19
2023-04-26T14:13:21.451Z,100238.25
2023-04-26T14:18:23.578Z,100226.78
2023-04-26T14:23:25.974Z,100236.19
2023-04-26T14:28:28.232Z,100240.34
2023-04-26T14:33:30.616Z,100245.78
2023-04-26T14:38:33.064Z,100227.78
2023-04-26T14:43:35.198Z,100227.81
2023-04-26T14:48:37.449Z,100238.28
2023-04-26T14:53:39.601Z,100235.59
2023-04-26T14:58:44.068Z,100252.75
2023-04-26T15:03:46.950Z,100253.63
2023-04-26T15:08:49.372Z,100253.78
2023-04-26T15:13:51.655Z,100255.56
2023-04-26T15:18:53.883Z,100264.00
2023-04-26T15:23:56.408Z,100247.50
2023-04-26T15:28:58.543Z,100244.50
2023-04-26T15:34:00.725Z,100273.38
2023-04-26T15:39:03.211Z,100275.03
2023-04-26T15:44:05.504Z,100284.28
2023-04-26T15:49:07.677Z,100264.28
2023-04-26T15:54:09.852Z,100265.88
2023-04-26T15:59:12.110Z,100265.03
2023-04-26T16:04:14.360Z,100261.59
2023-04-26T16:09:25.359Z,100268.19
2023-04-26T16:14:28.250Z,100265.25
2023-04-26T16:19:31.018Z,100267.53
2023-04-26T16:24:33.252Z,100279.41
2023-04-26T16:29:35.360Z,100289.94
2023-04-26T16:34:40.552Z,100291.16
2023-04-26T16:39:43.451Z,100307.66
2023-04-26T16:44:46.017Z,100314.72
2023-04-26T16:49:48.189Z,100293.00
2023-04-26T16:54:50.728Z,100305.37
2023-04-26T16:59:52.895Z,100319.97
2023-04-26T17:04:55.321Z,100339.25
2023-04-26T17:09:57.836Z,100330.22
2023-04-26T17:15:01.185Z,100327.31
2023-04-26T17:20:10.152Z,100317.47
2023-04-26T17:25:13.621Z,100328.66
2023-04-26T17:30:16.089Z,100342.09
2023-04-26T17:35:18.318Z,100346.00
2023-04-26T17:40:21.126Z,100287.34
2023-04-26T17:45:23.544Z,100353.31
2023-04-26T17:50:26.002Z,100364.56
2023-04-26T17:55:28.184Z,100370.34
2023-04-26T18:00:30.449Z,100377.50
2023-04-26T18:05:33.068Z,100379.16
2023-04-26T18:10:35.201Z,100374.47
2023-04-26T18:15:37.545Z,100379.69
2023-04-26T18:20:39.646Z,100404.41
2023-04-26T18:25:42.369Z,100390.66
2023-04-26T18:30:44.717Z,100404.38
2023-04-26T18:35:48.884Z,100412.28
2023-04-26T18:40:51.236Z,100425.31
2023-04-26T18:45:56.593Z,100407.72
2023-04-26T18:50:58.747Z,100426.69
2023-04-26T18:56:00.982Z,100417.91
2023-04-26T19:01:03.225Z,100449.47
2023-04-26T19:06:09.574Z,100448.56
2023-04-26T19:11:12.558Z,100452.62
2023-04-26T19:16:14.729Z,100446.00
2023-04-26T19:21:16.952Z,100449.12
2023-04-26T19:26:19.134Z,100429.72
2023-04-26T19:31:21.773Z,100436.50
2023-04-26T19:36:24.902Z,100457.22
2023-04-26T19:41:27.404Z,100463.34
2023-04-26T19:46:29.736Z,100463.19
2023-04-26T19:51:32.261Z,100476.63
2023-04-26T19:56:34.949Z,100474.34
2023-04-26T20:01:37.447Z,100467.84
2023-04-26T20:06:39.602Z,100461.84
2023-04-26T20:11:42.317Z,100477.91
2023-04-26T20:16:44.714Z,100464.97
2023-04-26T20:21:46.912Z,100497.84
2023-04-26T20:26:49.059Z,100476.50
2023-04-26T20:31:51.440Z,100494.47
2023-04-26T20:36:53.747Z,100485.69
2023-04-26T20:41:55.999Z,100504.91
2023-04-26T20:46:58.706Z,100521.97
2023-04-26T20:52:01.040Z,100511.44
2023-04-26T20:57:03.919Z,100515.31
2023-04-26T21:02:07.862Z,100511.59
2023-04-26T21:07:10.928Z,100496.94
2023-04-26T21:12:13.105Z,100515.59
2023-04-26T21:17:16.127Z,100529.19
2023-04-26T21:22:18.324Z,100536.13
2023-04-26T21:27:20.505Z,100547.00
2023-04-26T21:32:22.643Z,100545.44
2023-04-26T21:37:24.877Z,100559.34
2023-04-26T21:42:27.130Z,100549.69
2023-04-26T21:47:29.282Z,100539.78
2023-04-26T21:52:31.802Z,100559.66
2023-04-26T21:57:33.989Z,100529.50
2023-04-26T22:02:36.390Z,100541.56
2023-04-26T22:07:38.844Z,100555.31
2023-04-26T22:12:41.250Z,100567.31
2023-04-26T22:17:43.481Z,100558.91
2023-04-26T22:22:46.021Z,100569.22
2023-04-26T22:27:48.510Z,100561.19
2023-04-26T22:32:53.738Z,100587.56
2023-04-26T22:37:56.188Z,100579.84
2023-04-26T22:42:58.336Z,100596.09
2023-04-26T22:48:00.857Z,100591.91
2023-04-26T22:53:03.155Z,100592.75
2023-04-26T22:58:05.330Z,100593.37
2023-04-26T23:03:07.628Z,100608.31
2023-04-26T23:08:09.929Z,100597.63
2023-04-26T23:13:12.110Z,100622.88
2023-04-26T23:18:14.500Z,100615.09
2023-04-26T23:23:16.603Z,100621.44
2023-04-26T23:28:18.698Z,100608.28
2023-04-26T23:33:20.985Z,100636.63
2023-04-26T23:38:23.207Z,100642.44
2023-04-26T23:43:25.502Z,100618.88
2023-04-26T23:48:27.697Z,100628.81
2023-04-26T23:53:29.885Z,100614.97
2023-04-26T23:58:32.093Z,100632.03
